Terminal Aerodrome Forecast
Issued by NWS Duluth, MN

Home | Current Version | Previous Version | Text Only | Print | Product List | Glossary On
Versions: 1 2 3 4 5 6 7 8 9 10 11 12 13 14 15 16 17 18 19 20 21 22 23 24 25 26 27 28 29
692
FTUS43 KDLH 251138
TAFDLH
TAF
KDLH 251138Z 2512/2612 33011G18KT P6SM SCT014
      TEMPO 2512/2514 -SN BKN014
     FM251500 33012G18KT P6SM FEW050
     FM252000 29012KT P6SM VCSH SCT020 BKN050
     FM260600 25006KT 5SM -SN BKN018 OVC035=

USA.gov is the U.S. government's official web portal to all federal, state and local government web resources and services.